Time;durP1;ratioP1;P1;durP2;ratioP2;P2;SDS_P1;SDS_P2;PMS_P1;PMS_P2;Temp;Humidity;BMP_temperature;BMP_pressure;BME280_temperature;BME280_humidity;BME280_pressure;Samples;Min_cycle;Max_cycle;Signal;HPM_P1;HPM_P2
2022/02/25 00:02:22;;;;;;;17.50;2.90;;;;;;;;;;5084792;28;20110;-66
2022/02/25 00:04:48;;;;;;;17.92;3.28;;;;;;;;;;5086177;28;20508;-66
2022/02/25 00:07:14;;;;;;;16.80;3.45;;;;;;;;;;5101457;28;20127;-66
2022/02/25 00:09:40;;;;;;;19.52;2.30;;;;;;;;;;5086127;28;20049;-66
2022/02/25 00:12:06;;;;;;;16.55;2.38;;;;;;;;;;5068678;28;20041;-66
2022/02/25 00:14:33;;;;;;;16.52;3.50;;;;;;;;;;5065921;28;20051;-67
2022/02/25 00:16:59;;;;;;;17.05;3.05;;;;;;;;;;5065868;28;20044;-66
2022/02/25 00:19:25;;;;;;;12.48;3.10;;;;;;;;;;5081467;28;20236;-66
2022/02/25 00:21:51;;;;;;;19.77;2.85;;;;;;;;;;5078437;28;20040;-67
2022/02/25 00:24:17;;;;;;;13.35;2.53;;;;;;;;;;5085770;28;20056;-67
2022/02/25 00:26:43;;;;;;;18.33;2.85;;;;;;;;;;5085503;28;20455;-67
2022/02/25 00:29:10;;;;;;;17.50;2.45;;;;;;;;;;5086050;28;20047;-67
2022/02/25 00:31:36;;;;;;;20.00;2.22;;;;;;;;;;5071519;28;20045;-67
2022/02/25 00:34:02;;;;;;;13.55;2.60;;;;;;;;;;5065839;28;20040;-67
2022/02/25 00:36:28;;;;;;;11.40;2.35;;;;;;;;;;5064954;28;20045;-67
2022/02/25 00:38:54;;;;;;;21.42;2.90;;;;;;;;;;5080486;28;20048;-67
2022/02/25 00:41:20;;;;;;;11.30;2.13;;;;;;;;;;5090269;28;20040;-67
2022/02/25 00:43:47;;;;;;;16.58;3.30;;;;;;;;;;5085014;28;20044;-67
2022/02/25 00:46:13;;;;;;;12.18;2.85;;;;;;;;;;5085210;28;20055;-67
2022/02/25 00:48:39;;;;;;;21.00;3.63;;;;;;;;;;5085593;28;20048;-67
2022/02/25 00:51:05;;;;;;;14.85;2.72;;;;;;;;;;5075162;28;20045;-66
2022/02/25 00:53:31;;;;;;;13.77;2.47;;;;;;;;;;5080528;28;20041;-67
2022/02/25 00:55:57;;;;;;;13.88;2.85;;;;;;;;;;5065132;28;20124;-67
2022/02/25 00:58:23;;;;;;;14.15;2.65;;;;;;;;;;5064711;28;20346;-66
2022/02/25 01:00:52;;;;;;;14.68;2.63;;;;;;;;;;5071211;28;20104;-67
2022/02/25 01:03:18;;;;;;;11.35;1.98;;;;;;;;;;5085391;28;20052;-67
2022/02/25 01:05:44;;;;;;;14.65;3.17;;;;;;;;;;5085251;28;20131;-67
2022/02/25 01:08:10;;;;;;;19.33;2.70;;;;;;;;;;5084393;28;20200;-67
2022/02/25 01:10:37;;;;;;;17.17;2.78;;;;;;;;;;5080137;28;20052;-67
2022/02/25 01:13:04;;;;;;;14.00;2.33;;;;;;;;;;5079848;28;20049;-67
2022/02/25 01:15:30;;;;;;;33.42;3.25;;;;;;;;;;5064856;28;20041;-67
2022/02/25 01:17:57;;;;;;;13.65;2.53;;;;;;;;;;5080763;28;20131;-67
2022/02/25 01:20:23;;;;;;;7.68;1.85;;;;;;;;;;5081912;28;20049;-67
2022/02/25 01:22:49;;;;;;;19.13;2.72;;;;;;;;;;5063956;28;20045;-66
2022/02/25 01:25:15;;;;;;;16.85;2.50;;;;;;;;;;5069370;28;20043;-66
2022/02/25 01:27:42;;;;;;;16.67;2.63;;;;;;;;;;5084408;28;20528;-66
2022/02/25 01:30:09;;;;;;;11.77;2.53;;;;;;;;;;5083087;28;20052;-66
2022/02/25 01:32:35;;;;;;;14.07;2.75;;;;;;;;;;5064489;28;20064;-66
2022/02/25 01:35:02;;;;;;;14.98;2.53;;;;;;;;;;5064553;28;20045;-66
2022/02/25 01:37:29;;;;;;;20.17;3.77;;;;;;;;;;5064070;28;20049;-66
2022/02/25 01:39:55;;;;;;;16.38;3.15;;;;;;;;;;5064290;28;20150;-66
2022/02/25 01:42:21;;;;;;;9.52;2.75;;;;;;;;;;5081917;28;20512;-66
2022/02/25 01:44:48;;;;;;;19.67;2.40;;;;;;;;;;5084471;28;20049;-66
2022/02/25 01:47:14;;;;;;;17.88;3.50;;;;;;;;;;5084333;28;20522;-66
2022/02/25 01:49:41;;;;;;;11.00;2.77;;;;;;;;;;5083601;28;20041;-66
2022/02/25 01:52:11;;;;;;;10.15;2.50;;;;;;;;;;5066859;28;20056;-67
2022/02/25 01:54:37;;;;;;;13.90;2.75;;;;;;;;;;5064197;28;20114;-66
2022/02/25 01:57:05;;;;;;;17.38;3.42;;;;;;;;;;5063656;28;20083;-67
2022/02/25 01:59:32;;;;;;;14.43;2.65;;;;;;;;;;5064653;28;20225;-66
2022/02/25 02:01:58;;;;;;;13.82;2.58;;;;;;;;;;5078820;28;20098;-67
2022/02/25 02:04:26;;;;;;;21.65;3.03;;;;;;;;;;5084165;28;20068;-67
2022/02/25 02:06:52;;;;;;;15.55;3.13;;;;;;;;;;5082513;28;20047;-67
2022/02/25 02:09:18;;;;;;;12.93;2.33;;;;;;;;;;5084254;28;20209;-67
2022/02/25 02:11:46;;;;;;;16.95;3.10;;;;;;;;;;5083749;28;20048;-67
2022/02/25 02:14:13;;;;;;;15.88;2.85;;;;;;;;;;5084431;28;20083;-66
2022/02/25 02:16:40;;;;;;;20.17;4.22;;;;;;;;;;5083258;28;20377;-67
2022/02/25 02:19:07;;;;;;;24.23;3.47;;;;;;;;;;5064061;28;20462;-66
2022/02/25 02:21:35;;;;;;;10.98;3.15;;;;;;;;;;5063164;28;20051;-66
2022/02/25 02:24:02;;;;;;;18.13;5.03;;;;;;;;;;5075837;28;20108;-67
2022/02/25 02:26:29;;;;;;;18.63;3.47;;;;;;;;;;5083964;28;20052;-66
2022/02/25 02:28:55;;;;;;;20.23;3.83;;;;;;;;;;5083307;28;20068;-66
2022/02/25 02:31:22;;;;;;;15.25;3.15;;;;;;;;;;5083891;28;20526;-66
2022/02/25 02:33:48;;;;;;;19.73;3.92;;;;;;;;;;5083907;28;20049;-66
2022/02/25 02:36:14;;;;;;;15.23;3.00;;;;;;;;;;5083233;28;20055;-66
2022/02/25 02:38:40;;;;;;;12.27;2.90;;;;;;;;;;5080665;28;20066;-66
2022/02/25 02:41:07;;;;;;;15.60;2.85;;;;;;;;;;5077493;28;20429;-67
2022/02/25 02:43:33;;;;;;;20.25;2.65;;;;;;;;;;5063932;28;20047;-67
2022/02/25 02:46:00;;;;;;;19.42;2.72;;;;;;;;;;5063587;28;20515;-66
2022/02/25 02:48:26;;;;;;;19.10;3.13;;;;;;;;;;5063670;28;20128;-66
2022/02/25 02:50:53;;;;;;;13.07;3.17;;;;;;;;;;5065791;28;20075;-66
2022/02/25 02:53:19;;;;;;;17.35;3.25;;;;;;;;;;5083694;28;20059;-66
2022/02/25 02:55:46;;;;;;;19.40;3.70;;;;;;;;;;5083833;28;20052;-66
2022/02/25 02:58:12;;;;;;;16.20;3.28;;;;;;;;;;5083263;28;20068;-66
2022/02/25 03:00:40;;;;;;;;;;;;;;;;;;5083396;28;20040;-66
2022/02/25 03:03:06;;;;;;;12.73;2.65;;;;;;;;;;5067226;28;19921;-66
2022/02/25 03:05:33;;;;;;;11.63;2.58;;;;;;;;;;5067196;28;20052;-66
2022/02/25 03:07:59;;;;;;;14.48;3.72;;;;;;;;;;5066757;28;20128;-67
2022/02/25 03:10:25;;;;;;;21.83;4.20;;;;;;;;;;5067521;28;20114;-66
2022/02/25 03:12:52;;;;;;;14.88;3.50;;;;;;;;;;5085700;28;20141;-66
2022/02/25 03:15:18;;;;;;;20.35;5.03;;;;;;;;;;5087083;28;20036;-66
2022/02/25 03:17:44;;;;;;;14.43;3.15;;;;;;;;;;5086996;28;20049;-66
2022/02/25 03:20:11;;;;;;;19.90;3.05;;;;;;;;;;5087014;28;20044;-67
2022/02/25 03:22:37;;;;;;;15.98;3.65;;;;;;;;;;5067021;28;20048;-67
2022/02/25 03:25:05;;;;;;;19.55;4.13;;;;;;;;;;5082668;28;20128;-66
2022/02/25 03:27:31;;;;;;;21.02;3.40;;;;;;;;;;5066568;28;20057;-66
2022/02/25 03:29:57;;;;;;;20.08;2.95;;;;;;;;;;5087500;28;20148;-66
2022/02/25 03:32:24;;;;;;;18.40;3.05;;;;;;;;;;5082927;28;20047;-66
2022/02/25 03:34:51;;;;;;;17.17;3.20;;;;;;;;;;5086809;28;20131;-67
2022/02/25 03:37:17;;;;;;;20.53;3.13;;;;;;;;;;5084851;28;20413;-66
2022/02/25 03:39:43;;;;;;;11.95;2.42;;;;;;;;;;5087080;28;20463;-66
2022/02/25 03:42:10;;;;;;;16.38;3.17;;;;;;;;;;5069050;28;20044;-66
2022/02/25 03:44:36;;;;;;;17.65;2.60;;;;;;;;;;5066630;28;20048;-67
2022/02/25 03:47:02;;;;;;;10.63;3.00;;;;;;;;;;5082059;28;20048;-66
2022/02/25 03:49:28;;;;;;;22.17;3.03;;;;;;;;;;5086355;28;20508;-66
2022/02/25 03:51:54;;;;;;;17.77;2.85;;;;;;;;;;5070080;28;20045;-66
2022/02/25 03:54:21;;;;;;;13.10;2.40;;;;;;;;;;5066150;28;20064;-66
2022/02/25 03:56:47;;;;;;;10.82;2.47;;;;;;;;;;5065958;28;20047;-66
2022/02/25 03:59:13;;;;;;;14.45;2.58;;;;;;;;;;5066472;28;20064;-67
2022/02/25 04:01:39;;;;;;;18.05;3.15;;;;;;;;;;5077482;28;20123;-66
2022/02/25 04:04:05;;;;;;;17.25;3.35;;;;;;;;;;5084391;28;20059;-66
2022/02/25 04:06:33;;;;;;;11.55;2.60;;;;;;;;;;5085991;28;20100;-66
2022/02/25 04:08:59;;;;;;;19.15;3.30;;;;;;;;;;5086105;28;20068;-66
2022/02/25 04:11:26;;;;;;;14.93;2.97;;;;;;;;;;5086044;28;20037;-67
2022/02/25 04:13:53;;;;;;;25.50;3.35;;;;;;;;;;5070869;28;20079;-66
2022/02/25 04:16:20;;;;;;;12.50;2.35;;;;;;;;;;5065655;28;20071;-66
2022/02/25 04:18:46;;;;;;;18.98;3.15;;;;;;;;;;5081514;28;20048;-66
2022/02/25 04:21:13;;;;;;;11.90;2.25;;;;;;;;;;5081063;28;20104;-66
2022/02/25 04:23:40;;;;;;;14.45;3.03;;;;;;;;;;5092833;28;20055;-66
2022/02/25 04:26:06;;;;;;;20.00;3.35;;;;;;;;;;5085678;28;20052;-66
2022/02/25 04:28:32;;;;;;;18.67;3.17;;;;;;;;;;5085580;28;20072;-66
2022/02/25 04:30:58;;;;;;;29.25;4.57;;;;;;;;;;5085518;28;20068;-66
2022/02/25 04:33:24;;;;;;;18.45;3.17;;;;;;;;;;5075860;28;20061;-66
2022/02/25 04:35:50;;;;;;;19.95;3.63;;;;;;;;;;5074783;28;20048;-66
2022/02/25 04:38:17;;;;;;;14.63;3.47;;;;;;;;;;5085796;28;20053;-66
2022/02/25 04:40:43;;;;;;;11.85;3.22;;;;;;;;;;5085611;28;20100;-66
2022/02/25 04:43:09;;;;;;;19.85;3.17;;;;;;;;;;5083415;28;20036;-66
2022/02/25 04:45:35;;;;;;;22.92;2.63;;;;;;;;;;5085283;28;20084;-66
2022/02/25 04:48:02;;;;;;;19.50;3.47;;;;;;;;;;5085567;28;20044;-67
2022/02/25 04:50:28;;;;;;;12.55;2.67;;;;;;;;;;5084198;28;20037;-66
2022/02/25 04:52:54;;;;;;;20.70;2.97;;;;;;;;;;5079215;28;20037;-66
2022/02/25 04:55:20;;;;;;;27.08;3.80;;;;;;;;;;5065040;28;20052;-66
2022/02/25 04:57:47;;;;;;;16.95;3.13;;;;;;;;;;5064544;28;20064;-66
2022/02/25 05:00:16;;;;;;;28.93;4.27;;;;;;;;;;5065033;28;20060;-66
2022/02/25 05:02:43;;;;;;;19.48;3.67;;;;;;;;;;5083032;28;20087;-66
2022/02/25 05:05:09;;;;;;;22.07;3.40;;;;;;;;;;5085075;28;20047;-66
2022/02/25 05:07:35;;;;;;;17.55;3.08;;;;;;;;;;5084500;28;20067;-66
2022/02/25 05:10:02;;;;;;;17.92;2.90;;;;;;;;;;5084724;28;20048;-66
2022/02/25 05:12:29;;;;;;;13.27;2.40;;;;;;;;;;5083358;28;20102;-67
2022/02/25 05:20:25;;;;;;;15.80;2.97;;;;;;;;;;5065084;28;20080;-67
2022/02/25 05:23:01;;;;;;;16.08;2.92;;;;;;;;;;5074173;28;20041;-66
2022/02/25 05:25:28;;;;;;;13.82;3.25;;;;;;;;;;5084183;28;20050;-66
2022/02/25 05:27:56;;;;;;;10.83;1.93;;;;;;;;;;5064163;28;20072;-66
2022/02/25 05:30:22;;;;;;;16.15;2.65;;;;;;;;;;5064772;28;20280;-66
2022/02/25 05:32:49;;;;;;;17.20;2.83;;;;;;;;;;5073849;28;20048;-67
2022/02/25 05:35:15;;;;;;;19.40;3.65;;;;;;;;;;5084913;28;20044;-67
2022/02/25 05:37:42;;;;;;;22.67;3.22;;;;;;;;;;5083883;28;20109;-66
2022/02/25 05:40:09;;;;;;;22.35;3.72;;;;;;;;;;5084186;28;20045;-66
2022/02/25 05:42:36;;;;;;;9.50;3.83;;;;;;;;;;5074855;28;20049;-66
2022/02/25 05:45:03;;;;;;;25.13;3.20;;;;;;;;;;5066763;28;20315;-66
2022/02/25 05:47:29;;;;;;;14.70;3.05;;;;;;;;;;5084060;28;20044;-66
2022/02/25 05:49:56;;;;;;;15.02;3.45;;;;;;;;;;5084455;28;20146;-66
2022/02/25 05:52:22;;;;;;;21.13;3.88;;;;;;;;;;5083566;28;20059;-66
2022/02/25 05:54:48;;;;;;;20.30;4.60;;;;;;;;;;5080985;28;20064;-66
2022/02/25 05:57:15;;;;;;;16.60;2.65;;;;;;;;;;5076115;28;20062;-67
2022/02/25 05:59:42;;;;;;;24.10;3.78;;;;;;;;;;5082432;28;20044;-70
2022/02/25 06:02:08;;;;;;;28.42;3.90;;;;;;;;;;5071816;28;20048;-68
2022/02/25 06:04:34;;;;;;;17.08;3.42;;;;;;;;;;5064498;28;20075;-70
2022/02/25 06:07:00;;;;;;;20.02;4.07;;;;;;;;;;5073180;28;20123;-68
2022/02/25 06:09:27;;;;;;;18.77;3.75;;;;;;;;;;5079935;28;20040;-69
2022/02/25 06:11:53;;;;;;;26.30;2.85;;;;;;;;;;5087249;28;20056;-67
2022/02/25 06:14:19;;;;;;;14.60;2.70;;;;;;;;;;5083860;28;20044;-68
2022/02/25 06:16:45;;;;;;;20.40;2.88;;;;;;;;;;5069850;28;20481;-69
2022/02/25 06:19:11;;;;;;;14.30;3.13;;;;;;;;;;5065467;28;20071;-69
2022/02/25 06:21:37;;;;;;;11.50;3.00;;;;;;;;;;5071265;28;20075;-69
2022/02/25 06:24:04;;;;;;;25.02;3.03;;;;;;;;;;5083164;28;20037;-69
2022/02/25 06:26:30;;;;;;;11.63;2.38;;;;;;;;;;5083870;28;20123;-69
2022/02/25 06:28:57;;;;;;;18.95;3.17;;;;;;;;;;5083627;28;20048;-69
2022/02/25 06:31:23;;;;;;;17.52;2.95;;;;;;;;;;5062786;28;20080;-70
2022/02/25 06:33:49;;;;;;;8.95;2.20;;;;;;;;;;5064169;28;20053;-70
2022/02/25 06:36:16;;;;;;;18.23;3.00;;;;;;;;;;5080464;28;20053;-71
2022/02/25 06:38:42;;;;;;;20.85;2.95;;;;;;;;;;5083021;28;20412;-70
2022/02/25 06:41:08;;;;;;;15.63;3.55;;;;;;;;;;5083748;28;20060;-69
2022/02/25 06:43:34;;;;;;;20.90;3.92;;;;;;;;;;5082581;28;20055;-70
2022/02/25 06:46:00;;;;;;;22.27;3.25;;;;;;;;;;5085960;28;20100;-70
2022/02/25 06:48:26;;;;;;;18.58;4.03;;;;;;;;;;5087864;28;20563;-69
2022/02/25 06:50:52;;;;;;;23.88;3.83;;;;;;;;;;5086744;28;20044;-69
2022/02/25 06:53:18;;;;;;;12.30;3.15;;;;;;;;;;5087296;28;20049;-70
2022/02/25 06:55:45;;;;;;;15.15;3.22;;;;;;;;;;5071710;28;20124;-70
2022/02/25 06:58:11;;;;;;;14.02;2.78;;;;;;;;;;5090113;28;20571;-72
2022/02/25 07:00:38;;;;;;;11.65;3.72;;;;;;;;;;5086046;28;20052;-70
2022/02/25 07:03:05;;;;;;;23.92;3.40;;;;;;;;;;5087625;28;20040;-70
2022/02/25 07:05:33;;;;;;;18.60;3.28;;;;;;;;;;5087074;28;20048;-70
2022/02/25 07:07:59;;;;;;;16.42;3.13;;;;;;;;;;5080702;28;20097;-70
2022/02/25 07:10:25;;;;;;;21.00;3.80;;;;;;;;;;5066998;28;20072;-70
2022/02/25 07:12:52;;;;;;;30.48;4.53;;;;;;;;;;5082111;28;20053;-70
2022/02/25 07:15:18;;;;;;;13.07;3.00;;;;;;;;;;5067509;28;20044;-70
2022/02/25 07:17:44;;;;;;;23.33;4.03;;;;;;;;;;5069778;28;20048;-70
2022/02/25 07:20:10;;;;;;;26.35;4.07;;;;;;;;;;5087056;28;20465;-70
2022/02/25 07:22:37;;;;;;;26.60;4.38;;;;;;;;;;5086204;28;20119;-70
2022/02/25 07:25:04;;;;;;;25.55;4.07;;;;;;;;;;5087099;28;20047;-70
2022/02/25 07:27:30;;;;;;;19.40;4.00;;;;;;;;;;5083424;28;20049;-68
2022/02/25 07:29:56;;;;;;;22.95;3.58;;;;;;;;;;5086629;28;20044;-70
2022/02/25 07:32:24;;;;;;;31.00;5.13;;;;;;;;;;5082064;28;20044;-69
2022/02/25 07:34:50;;;;;;;19.98;3.85;;;;;;;;;;5066797;28;20465;-70
2022/02/25 07:37:17;;;;;;;27.85;4.68;;;;;;;;;;5086009;28;20556;-70
2022/02/25 07:39:43;;;;;;;31.27;5.25;;;;;;;;;;5086762;28;20044;-69
2022/02/25 07:42:09;;;;;;;27.95;4.13;;;;;;;;;;5086050;28;20051;-69
2022/02/25 07:44:35;;;;;;;25.10;4.20;;;;;;;;;;5068452;28;20696;-69
2022/02/25 07:47:01;;;;;;;25.27;4.38;;;;;;;;;;5077180;28;20048;-69
2022/02/25 07:49:27;;;;;;;24.80;3.50;;;;;;;;;;5092849;28;20035;-69
2022/02/25 07:51:53;;;;;;;25.13;4.28;;;;;;;;;;5089512;28;20479;-69
2022/02/25 07:54:20;;;;;;;28.52;5.20;;;;;;;;;;5088619;28;20086;-69
2022/02/25 07:56:46;;;;;;;25.48;4.40;;;;;;;;;;5086289;28;20045;-69
2022/02/25 07:59:13;;;;;;;26.63;3.90;;;;;;;;;;5085171;28;20520;-69
2022/02/25 08:01:40;;;;;;;17.50;3.75;;;;;;;;;;5085787;28;20417;-70
2022/02/25 08:04:09;;;;;;;21.20;3.50;;;;;;;;;;5077483;28;20773;-69
2022/02/25 08:06:36;;;;;;;15.32;4.07;;;;;;;;;;5085554;28;20044;-68
2022/02/25 08:09:03;;;;;;;15.68;2.80;;;;;;;;;;5088179;28;20043;-71
2022/02/25 08:11:29;;;;;;;34.83;6.13;;;;;;;;;;5095034;28;20185;-69
2022/02/25 08:13:55;;;;;;;23.35;3.88;;;;;;;;;;5086534;28;20041;-69
2022/02/25 08:16:22;;;;;;;35.63;4.70;;;;;;;;;;5085545;28;20560;-68
2022/02/25 08:18:49;;;;;;;20.98;3.88;;;;;;;;;;5071029;28;20146;-68
2022/02/25 08:21:15;;;;;;;19.17;3.92;;;;;;;;;;5077619;28;20048;-68
2022/02/25 08:23:41;;;;;;;19.52;3.88;;;;;;;;;;5066013;28;20108;-68
2022/02/25 08:26:07;;;;;;;19.13;4.07;;;;;;;;;;5079579;28;20066;-68
2022/02/25 08:28:33;;;;;;;19.25;3.28;;;;;;;;;;5098412;28;20075;-69
2022/02/25 08:31:00;;;;;;;22.63;3.50;;;;;;;;;;5088854;28;20074;-69
2022/02/25 08:33:26;;;;;;;15.80;3.28;;;;;;;;;;5078031;28;20053;-69
2022/02/25 08:35:53;;;;;;;17.23;3.00;;;;;;;;;;5068474;28;20385;-68
2022/02/25 08:38:19;;;;;;;26.40;4.88;;;;;;;;;;5085204;28;20045;-69
2022/02/25 08:40:45;;;;;;;26.65;3.33;;;;;;;;;;5083544;28;20071;-69
2022/02/25 08:43:12;;;;;;;16.25;2.50;;;;;;;;;;5079672;28;20121;-69
2022/02/25 08:45:41;;;;;;;15.33;3.57;;;;;;;;;;5082515;28;20041;-68
2022/02/25 08:48:09;;;;;;;17.40;3.13;;;;;;;;;;5081718;28;20044;-69
2022/02/25 08:50:35;;;;;;;13.40;3.22;;;;;;;;;;5070477;28;20048;-68
2022/02/25 08:53:01;;;;;;;18.95;3.90;;;;;;;;;;5080359;28;20072;-68
2022/02/25 08:55:28;;;;;;;19.27;2.42;;;;;;;;;;5065858;28;20048;-68
2022/02/25 08:57:54;;;;;;;16.77;2.72;;;;;;;;;;5065011;28;20069;-68
2022/02/25 09:00:22;;;;;;;22.88;3.50;;;;;;;;;;5064681;28;20083;-68
2022/02/25 09:02:49;;;;;;;21.92;2.65;;;;;;;;;;5065556;28;20045;-69
2022/02/25 09:05:16;;;;;;;16.58;2.67;;;;;;;;;;5085134;28;20119;-69
2022/02/25 09:07:42;;;;;;;19.00;3.17;;;;;;;;;;5084704;28;20072;-69
2022/02/25 09:10:09;;;;;;;16.95;2.25;;;;;;;;;;5085631;28;20087;-69
2022/02/25 09:12:36;;;;;;;14.43;3.13;;;;;;;;;;5083656;28;20104;-68
2022/02/25 09:15:06;;;;;;;19.95;3.08;;;;;;;;;;5084832;28;20068;-68
2022/02/25 09:17:32;;;;;;;11.60;2.72;;;;;;;;;;5084841;28;20063;-69
2022/02/25 09:19:59;;;;;;;16.13;3.15;;;;;;;;;;5084868;28;20043;-68
2022/02/25 09:22:25;;;;;;;19.73;3.22;;;;;;;;;;5083674;28;20123;-69
2022/02/25 09:24:51;;;;;;;16.65;3.53;;;;;;;;;;5065036;28;20059;-68
2022/02/25 09:27:17;;;;;;;17.77;3.55;;;;;;;;;;5064505;28;20053;-68
2022/02/25 09:29:43;;;;;;;22.50;4.03;;;;;;;;;;5064709;28;20045;-68
2022/02/25 09:32:10;;;;;;;32.75;4.93;;;;;;;;;;5087916;28;20495;-67
2022/02/25 09:34:36;;;;;;;12.65;3.97;;;;;;;;;;5086568;28;20051;-68
2022/02/25 09:37:03;;;;;;;28.20;3.85;;;;;;;;;;5083310;28;20404;-69
2022/02/25 09:39:29;;;;;;;24.35;4.25;;;;;;;;;;5078158;28;21146;-68
2022/02/25 09:41:56;;;;;;;17.45;3.03;;;;;;;;;;5077038;28;20048;-68
2022/02/25 09:44:26;;;;;;;24.52;4.70;;;;;;;;;;5073364;28;20041;-69
2022/02/25 09:46:53;;;;;;;26.35;3.42;;;;;;;;;;5064082;28;20055;-63
2022/02/25 09:49:19;;;;;;;16.90;2.65;;;;;;;;;;5064080;28;20052;-67
2022/02/25 09:51:46;;;;;;;14.20;3.63;;;;;;;;;;5070426;28;20040;-68
2022/02/25 09:54:17;;;;;;;19.15;2.53;;;;;;;;;;5071258;28;20136;-66
2022/02/25 09:56:46;;;;;;;24.50;3.08;;;;;;;;;;5064409;28;20037;-66
2022/02/25 09:59:12;;;;;;;10.70;1.52;;;;;;;;;;5074754;28;20060;-66
2022/02/25 10:01:38;;;;;;;10.02;2.47;;;;;;;;;;5075936;28;20045;-66
2022/02/25 10:04:19;;;;;;;9.98;1.48;;;;;;;;;;5078005;28;20123;-66
2022/02/25 10:06:45;;;;;;;12.18;2.30;;;;;;;;;;5076903;28;20044;-66
2022/02/25 10:09:33;;;;;;;11.70;1.80;;;;;;;;;;5083448;28;20037;-66
2022/02/25 10:12:00;;;;;;;12.55;2.25;;;;;;;;;;5082850;28;20076;-66
2022/02/25 10:14:40;;;;;;;9.27;1.23;;;;;;;;;;5072779;28;20079;-66
2022/02/25 10:17:09;;;;;;;12.88;2.95;;;;;;;;;;5064006;28;20056;-66
2022/02/25 10:19:35;;;;;;;17.23;2.55;;;;;;;;;;5064020;28;20082;-66
2022/02/25 10:22:13;;;;;;;13.77;2.30;;;;;;;;;;5063213;28;20107;-66
2022/02/25 10:24:50;;;;;;;34.05;4.70;;;;;;;;;;5077462;28;20088;-66
2022/02/25 10:27:17;;;;;;;18.60;3.45;;;;;;;;;;5073039;28;20037;-66
2022/02/25 10:29:52;;;;;;;13.70;2.97;;;;;;;;;;5072805;28;20055;-66
2022/02/25 10:32:19;;;;;;;15.27;2.92;;;;;;;;;;5072703;28;20080;-66
2022/02/25 10:34:45;;;;;;;14.07;2.05;;;;;;;;;;5075912;28;20499;-66
2022/02/25 10:37:11;;;;;;;16.95;3.13;;;;;;;;;;5071350;28;20407;-66
2022/02/25 10:39:37;;;;;;;22.95;3.55;;;;;;;;;;5074607;28;20125;-66
2022/02/25 10:42:18;;;;;;;23.98;3.55;;;;;;;;;;5081646;28;20037;-67
2022/02/25 10:44:45;;;;;;;8.48;2.22;;;;;;;;;;5075934;28;20111;-67
2022/02/25 10:47:12;;;;;;;12.60;2.15;;;;;;;;;;5077576;28;20071;-67
2022/02/25 10:49:38;;;;;;;10.25;2.47;;;;;;;;;;5074246;28;20409;-67
2022/02/25 10:52:28;;;;;;;14.38;3.78;;;;;;;;;;5081601;28;20044;-66
2022/02/25 10:54:54;;;;;;;12.00;1.83;;;;;;;;;;5071451;28;20049;-66
2022/02/25 10:57:21;;;;;;;11.30;1.70;;;;;;;;;;5078097;28;20048;-66
2022/02/25 10:59:48;;;;;;;13.27;2.50;;;;;;;;;;5079434;28;20088;-69
2022/02/25 11:02:28;;;;;;;6.43;1.80;;;;;;;;;;5067395;28;20045;-66
2022/02/25 11:05:05;;;;;;;13.20;1.52;;;;;;;;;;5091765;28;20084;-70
2022/02/25 11:07:32;;;;;;;11.25;2.10;;;;;;;;;;5071955;28;20049;-75
2022/02/25 11:09:58;;;;;;;9.13;2.08;;;;;;;;;;5075497;28;20519;-73
2022/02/25 11:12:30;;;;;;;15.10;2.08;;;;;;;;;;5076787;28;20036;-71
2022/02/25 11:14:57;;;;;;;13.52;2.45;;;;;;;;;;5075067;28;20048;-72
2022/02/25 11:17:24;;;;;;;15.90;2.90;;;;;;;;;;5077923;28;20045;-68
2022/02/25 11:19:51;;;;;;;20.83;2.63;;;;;;;;;;5079421;28;20361;-74
2022/02/25 11:22:20;;;;;;;19.40;3.15;;;;;;;;;;5080785;28;20039;-73
2022/02/25 11:24:48;;;;;;;19.90;3.17;;;;;;;;;;5079649;28;20044;-78
2022/02/25 11:27:15;;;;;;;15.80;2.72;;;;;;;;;;5090854;28;20106;-69
2022/02/25 11:30:01;;;;;;;17.42;2.45;;;;;;;;;;5086616;28;20049;-66
2022/02/25 11:32:32;;;;;;;17.05;2.33;;;;;;;;;;5083211;28;20118;-64
2022/02/25 11:34:58;;;;;;;10.95;2.25;;;;;;;;;;5080572;28;20036;-68
2022/02/25 11:37:44;;;;;;;12.55;2.55;;;;;;;;;;5086008;28;20112;-67
2022/02/25 11:40:10;;;;;;;5.68;1.88;;;;;;;;;;5083265;28;20044;-72
2022/02/25 11:42:37;;;;;;;10.85;1.40;;;;;;;;;;5084420;28;20053;-72
2022/02/25 11:45:18;;;;;;;13.63;3.05;;;;;;;;;;5080878;28;20045;-65
2022/02/25 11:47:49;;;;;;;11.77;1.98;;;;;;;;;;5081008;28;20064;-66
2022/02/25 11:50:36;;;;;;;14.43;2.42;;;;;;;;;;5081043;28;20139;-67
2022/02/25 11:53:16;;;;;;;10.57;2.53;;;;;;;;;;5077830;28;20041;-64
2022/02/25 11:55:42;;;;;;;8.10;1.50;;;;;;;;;;5072245;28;20505;-63
2022/02/25 11:58:27;;;;;;;15.95;2.47;;;;;;;;;;5078472;28;20056;-65
2022/02/25 12:01:19;;;;;;;14.02;2.35;;;;;;;;;;5077900;28;20056;-66
2022/02/25 12:04:07;;;;;;;16.52;2.88;;;;;;;;;;5085309;28;20056;-70
2022/02/25 12:06:52;;;;;;;10.70;2.83;;;;;;;;;;5085322;28;20063;-68
2022/02/25 12:09:38;;;;;;;17.20;2.85;;;;;;;;;;5076254;28;20075;-68
2022/02/25 12:12:23;;;;;;;13.40;3.33;;;;;;;;;;5082751;28;20060;-66
2022/02/25 12:15:08;;;;;;;24.70;3.95;;;;;;;;;;5078714;28;20090;-71
2022/02/25 12:17:37;;;;;;;13.60;3.08;;;;;;;;;;5080533;28;20068;-68
2022/02/25 12:20:05;;;;;;;13.68;2.45;;;;;;;;;;5080078;28;20500;-68
2022/02/25 12:22:46;;;;;;;12.30;2.95;;;;;;;;;;5083556;28;20048;-69
2022/02/25 12:25:12;;;;;;;17.77;3.38;;;;;;;;;;5078118;28;20037;-70
2022/02/25 12:27:38;;;;;;;14.82;2.60;;;;;;;;;;5082146;28;20053;-68
2022/02/25 12:30:23;;;;;;;14.57;2.85;;;;;;;;;;5080938;28;20064;-67
2022/02/25 12:32:52;;;;;;;12.45;2.03;;;;;;;;;;5113549;28;20074;-69
2022/02/25 12:35:38;;;;;;;8.55;2.70;;;;;;;;;;5077792;28;20041;-67
2022/02/25 12:38:05;;;;;;;11.63;2.15;;;;;;;;;;5082327;28;20473;-67
2022/02/25 12:40:31;;;;;;;14.03;2.37;;;;;;;;;;5085594;28;20055;-70
2022/02/25 12:42:57;;;;;;;16.60;2.65;;;;;;;;;;5076067;28;20376;-70
2022/02/25 12:45:27;;;;;;;9.13;2.92;;;;;;;;;;5083743;28;20047;-65
2022/02/25 12:47:53;;;;;;;18.35;4.43;;;;;;;;;;5074825;28;20055;-66
2022/02/25 12:50:19;;;;;;;13.18;2.40;;;;;;;;;;5096945;28;20040;-71
2022/02/25 12:52:45;;;;;;;8.65;1.70;;;;;;;;;;5084687;28;20105;-69
2022/02/25 12:55:15;;;;;;;10.80;1.58;;;;;;;;;;5085234;28;20100;-70
2022/02/25 12:57:41;;;;;;;15.95;2.80;;;;;;;;;;5071326;28;20502;-69
2022/02/25 13:00:08;;;;;;;13.13;2.38;;;;;;;;;;5085002;28;20045;-69
2022/02/25 13:02:34;;;;;;;9.73;1.70;;;;;;;;;;5084854;28;20076;-71
2022/02/25 13:05:00;;;;;;;6.90;1.55;;;;;;;;;;5084437;28;20045;-72
2022/02/25 13:07:27;;;;;;;20.40;3.28;;;;;;;;;;5073429;28;20081;-72
2022/02/25 13:09:54;;;;;;;10.27;1.85;;;;;;;;;;5079702;28;20181;-69
2022/02/25 13:12:21;;;;;;;12.73;2.72;;;;;;;;;;5080770;28;20064;-70
2022/02/25 13:14:57;;;;;;;12.43;2.22;;;;;;;;;;5084689;28;20044;-70
2022/02/25 13:17:25;;;;;;;10.88;2.47;;;;;;;;;;5089843;28;20044;-68
2022/02/25 13:19:55;;;;;;;12.60;2.28;;;;;;;;;;5108288;28;20059;-67
2022/02/25 13:22:24;;;;;;;12.05;2.13;;;;;;;;;;5074903;28;20067;-74
2022/02/25 13:24:52;;;;;;;9.40;2.78;;;;;;;;;;5078005;28;20041;-70
2022/02/25 13:27:25;;;;;;;12.73;2.65;;;;;;;;;;5080505;28;20036;-72
2022/02/25 13:29:51;;;;;;;11.32;2.03;;;;;;;;;;5082310;28;20516;-68
2022/02/25 13:32:24;;;;;;;6.55;1.90;;;;;;;;;;5072749;28;20037;-74
2022/02/25 13:34:51;;;;;;;1.50;0.40;;;;;;;;;;5111888;28;20126;-74
2022/02/25 13:37:17;;;;;;;1.55;0.38;;;;;;;;;;5084557;28;20032;-74
2022/02/25 13:39:43;;;;;;;0.80;0.50;;;;;;;;;;5073612;28;20092;-68
2022/02/25 13:42:09;;;;;;;1.50;0.38;;;;;;;;;;5079145;28;20100;-67
2022/02/25 13:44:36;;;;;;;7.03;1.45;;;;;;;;;;5073071;28;20108;-67
2022/02/25 13:52:34;;;;;;;12.63;2.85;;;;;;;;;;5070399;28;20048;-67
2022/02/25 13:55:11;;;;;;;10.05;2.58;;;;;;;;;;5090920;28;20053;-67
2022/02/25 13:57:39;;;;;;;11.63;1.67;;;;;;;;;;5078741;28;20041;-67
2022/02/25 14:00:05;;;;;;;;;;;;;;;;;;5076446;28;20080;-68
2022/02/25 14:02:32;;;;;;;12.07;1.65;;;;;;;;;;5074349;28;19924;-68
2022/02/25 14:05:02;;;;;;;9.10;2.00;;;;;;;;;;5077424;28;20070;-68
2022/02/25 14:07:36;;;;;;;11.32;2.45;;;;;;;;;;5076081;28;20647;-68
2022/02/25 14:10:04;;;;;;;18.38;3.10;;;;;;;;;;5096693;28;20047;-67
2022/02/25 14:12:31;;;;;;;7.85;1.60;;;;;;;;;;5081534;28;20044;-67
2022/02/25 14:14:57;;;;;;;6.35;1.42;;;;;;;;;;5078034;28;20044;-66
2022/02/25 14:17:24;;;;;;;11.85;2.58;;;;;;;;;;5079629;28;20131;-68
2022/02/25 14:19:56;;;;;;;6.35;1.55;;;;;;;;;;5079796;28;20397;-67
2022/02/25 14:22:29;;;;;;;9.52;2.20;;;;;;;;;;5077043;28;20040;-67
2022/02/25 14:24:55;;;;;;;10.05;1.88;;;;;;;;;;5081879;28;20048;-67
2022/02/25 14:27:22;;;;;;;8.60;1.92;;;;;;;;;;5078605;28;20046;-67
2022/02/25 14:29:58;;;;;;;8.45;2.05;;;;;;;;;;5076495;28;20051;-67
2022/02/25 14:32:24;;;;;;;13.32;2.42;;;;;;;;;;5075819;28;20040;-68
2022/02/25 14:34:50;;;;;;;11.07;2.05;;;;;;;;;;5073160;28;20353;-68
2022/02/25 14:37:21;;;;;;;13.05;1.95;;;;;;;;;;5084063;28;20047;-67
2022/02/25 14:39:47;;;;;;;12.10;2.38;;;;;;;;;;5082244;28;20630;-63
2022/02/25 14:42:13;;;;;;;15.05;3.22;;;;;;;;;;5082624;28;20048;-63
2022/02/25 14:44:39;;;;;;;11.93;2.70;;;;;;;;;;5083791;28;20044;-65
2022/02/25 14:47:05;;;;;;;12.10;2.53;;;;;;;;;;5077451;28;20055;-64